createdAt,value
2022-12-09T00:00:07.490Z,93.50
2022-12-09T00:05:07.001Z,93.50
2022-12-09T00:10:06.690Z,93.40
2022-12-09T00:15:06.044Z,93.40
2022-12-09T00:20:05.445Z,93.40
2022-12-09T00:25:04.904Z,93.40
2022-12-09T00:30:04.306Z,93.40
2022-12-09T00:35:04.442Z,93.40
2022-12-09T00:40:04.475Z,93.40
2022-12-09T00:45:04.252Z,93.30
2022-12-09T00:50:03.062Z,93.30
2022-12-09T00:55:02.079Z,93.30
2022-12-09T01:00:00.971Z,93.30
2022-12-09T01:05:00.087Z,93.40
2022-12-09T01:09:59.415Z,93.40
2022-12-09T01:14:59.009Z,93.40
2022-12-09T01:19:58.239Z,93.30
2022-12-09T01:24:57.239Z,93.30
2022-12-09T01:29:56.148Z,93.30
2022-12-09T01:34:55.200Z,93.40
2022-12-09T01:39:54.363Z,93.40
2022-12-09T01:44:53.098Z,93.30
2022-12-09T01:49:52.090Z,93.30
2022-12-09T01:54:51.243Z,93.30
2022-12-09T01:59:52.592Z,93.30
2022-12-09T02:04:52.657Z,93.30
2022-12-09T02:09:54.173Z,93.30
2022-12-09T02:14:53.289Z,93.30
2022-12-09T02:19:53.739Z,93.30
2022-12-09T02:24:53.051Z,93.30
2022-12-09T02:29:53.558Z,93.30
2022-12-09T02:34:53.116Z,93.20
2022-12-09T02:39:53.037Z,93.20
2022-12-09T02:44:53.355Z,93.20
2022-12-09T02:49:53.067Z,93.40
2022-12-09T02:54:52.543Z,93.20
2022-12-09T02:59:52.438Z,93.30
2022-12-09T03:04:52.185Z,93.40
2022-12-09T03:09:52.238Z,93.30
2022-12-09T03:14:51.344Z,93.40
2022-12-09T03:19:50.368Z,93.40
2022-12-09T03:24:49.219Z,93.40
2022-12-09T03:29:49.253Z,93.40
2022-12-09T03:34:48.000Z,93.30
2022-12-09T03:39:47.129Z,93.50
2022-12-09T03:44:46.150Z,93.50
2022-12-09T03:49:45.328Z,93.50
2022-12-09T03:54:44.118Z,93.50
2022-12-09T03:59:43.117Z,93.40
2022-12-09T04:04:42.277Z,93.60
2022-12-09T04:09:41.355Z,93.60
2022-12-09T04:14:40.212Z,93.50
2022-12-09T04:19:39.455Z,93.50
2022-12-09T04:24:38.331Z,93.40
2022-12-09T04:29:37.091Z,93.30
2022-12-09T04:34:36.161Z,93.30
2022-12-09T04:39:35.379Z,93.30
2022-12-09T04:44:34.113Z,93.30
2022-12-09T04:49:33.078Z,93.40
2022-12-09T04:54:32.563Z,93.40
2022-12-09T04:59:31.205Z,93.60
2022-12-09T05:04:30.433Z,93.60
2022-12-09T05:09:29.546Z,93.50
2022-12-09T05:14:29.165Z,93.60
2022-12-09T05:19:28.572Z,93.70
2022-12-09T05:24:28.477Z,93.80
2022-12-09T05:29:28.329Z,93.80
2022-12-09T05:34:27.565Z,93.80
2022-12-09T05:39:27.340Z,93.70
2022-12-09T05:44:26.265Z,93.60
2022-12-09T05:49:25.469Z,93.60
2022-12-09T05:54:25.224Z,93.50
2022-12-09T05:59:24.315Z,93.40
2022-12-09T06:04:23.547Z,93.30
2022-12-09T06:09:23.462Z,93.20
2022-12-09T06:14:22.055Z,93.20
2022-12-09T06:19:21.721Z,93.00
2022-12-09T06:24:21.206Z,92.90
2022-12-09T06:29:20.200Z,92.90
2022-12-09T06:34:19.463Z,92.80
2022-12-09T06:39:18.332Z,92.80
2022-12-09T06:44:23.211Z,92.80
2022-12-09T06:49:18.272Z,92.80
2022-12-09T06:54:17.346Z,92.90
2022-12-09T06:59:16.298Z,92.90
2022-12-09T07:04:15.672Z,92.90
2022-12-09T07:09:15.752Z,93.00
2022-12-09T07:14:15.434Z,92.90
2022-12-09T07:19:14.241Z,92.90
2022-12-09T07:24:13.437Z,92.90
2022-12-09T07:29:12.236Z,92.90
2022-12-09T07:34:11.655Z,92.90
2022-12-09T07:39:11.463Z,93.00
2022-12-09T07:44:10.608Z,93.00
2022-12-09T07:49:09.263Z,93.00
2022-12-09T07:54:08.200Z,93.00
2022-12-09T07:59:07.253Z,93.00
2022-12-09T08:04:09.916Z,93.00
2022-12-09T08:09:09.432Z,92.90
2022-12-09T08:14:12.271Z,93.00
2022-12-09T08:19:10.295Z,93.10
2022-12-09T08:24:09.561Z,93.20
2022-12-09T08:29:09.420Z,93.20
2022-12-09T08:34:10.182Z,93.20
2022-12-09T08:39:09.615Z,93.20
2022-12-09T08:44:09.600Z,93.30
2022-12-09T08:49:09.515Z,93.40
2022-12-09T08:54:09.416Z,93.50
2022-12-09T08:59:09.068Z,93.60
2022-12-09T09:04:08.731Z,93.70
2022-12-09T09:09:08.197Z,93.80
2022-12-09T09:14:08.484Z,93.80
2022-12-09T09:19:07.380Z,93.90
2022-12-09T09:24:07.307Z,93.90
2022-12-09T09:29:06.584Z,94.00
2022-12-09T09:34:05.679Z,94.10
2022-12-09T09:39:05.447Z,93.90
2022-12-09T09:44:04.585Z,93.90
2022-12-09T09:49:03.331Z,94.00
2022-12-09T09:54:08.464Z,93.90
2022-12-09T09:59:04.450Z,94.00
2022-12-09T10:04:03.483Z,93.90
2022-12-09T10:09:03.726Z,94.00
2022-12-09T10:14:03.919Z,93.80
2022-12-09T10:19:08.095Z,93.80
2022-12-09T10:24:04.763Z,93.80
2022-12-09T10:29:04.474Z,93.40
2022-12-09T10:34:03.912Z,93.10
2022-12-09T10:39:03.266Z,92.90
2022-12-09T10:44:03.276Z,92.60
2022-12-09T10:49:04.871Z,92.30
2022-12-09T10:54:04.407Z,92.60
2022-12-09T10:59:03.626Z,92.40
2022-12-09T11:04:03.954Z,91.70
2022-12-09T11:09:03.475Z,91.60
2022-12-09T11:14:03.614Z,91.80
2022-12-09T11:19:02.482Z,91.90
2022-12-09T11:24:03.632Z,91.60
2022-12-09T11:29:04.555Z,91.60
2022-12-09T11:34:04.303Z,91.60
2022-12-09T11:39:03.404Z,92.00
2022-12-09T11:44:02.159Z,91.60
2022-12-09T11:49:01.222Z,90.70
2022-12-09T11:54:03.568Z,90.10
2022-12-09T11:59:03.863Z,90.30
2022-12-09T12:04:03.380Z,90.10
2022-12-09T12:09:02.457Z,89.90
2022-12-09T12:14:01.459Z,90.30
2022-12-09T12:19:00.429Z,90.00
2022-12-09T12:23:59.417Z,88.40
2022-12-09T12:29:02.564Z,89.40
2022-12-09T12:34:23.005Z,89.70
2022-12-09T12:39:00.446Z,89.20
2022-12-09T12:44:17.725Z,89.40
2022-12-09T12:49:18.626Z,89.10
2022-12-09T12:54:18.235Z,89.20
2022-12-09T12:59:17.278Z,88.70
2022-12-09T13:04:16.266Z,88.70
2022-12-09T13:09:15.311Z,89.00
2022-12-09T13:14:14.305Z,88.70
2022-12-09T13:19:13.355Z,88.70
2022-12-09T13:24:13.127Z,88.90
2022-12-09T13:29:12.372Z,88.90
2022-12-09T13:34:11.549Z,88.90
2022-12-09T13:39:10.390Z,89.20
2022-12-09T13:44:09.426Z,89.20
2022-12-09T13:49:08.431Z,89.40
2022-12-09T13:54:07.423Z,89.60
2022-12-09T13:59:06.469Z,89.50
2022-12-09T14:04:05.253Z,89.60
2022-12-09T14:09:04.239Z,89.60
2022-12-09T14:14:03.356Z,89.60
2022-12-09T14:19:02.367Z,90.00
2022-12-09T14:24:01.343Z,90.00
2022-12-09T14:29:00.335Z,89.60
2022-12-09T14:33:59.299Z,89.70
2022-12-09T14:39:23.069Z,89.70
2022-12-09T14:43:59.378Z,89.50
2022-12-09T14:48:58.377Z,89.40
2022-12-09T14:53:57.648Z,89.40
2022-12-09T14:58:56.410Z,89.30
2022-12-09T15:03:55.596Z,89.10
2022-12-09T15:08:54.864Z,89.20
2022-12-09T15:13:53.902Z,89.00
2022-12-09T15:18:53.263Z,89.00
2022-12-09T15:23:52.489Z,89.00
2022-12-09T15:28:51.577Z,89.20
2022-12-09T15:33:50.575Z,89.20
2022-12-09T15:38:49.307Z,89.30
2022-12-09T15:43:52.096Z,89.40
2022-12-09T15:48:49.377Z,89.50
2022-12-09T15:53:53.632Z,89.80
2022-12-09T15:58:49.448Z,89.70
2022-12-09T16:03:48.482Z,89.80
2022-12-09T16:08:47.496Z,89.90
2022-12-09T16:13:46.463Z,90.00
2022-12-09T16:18:45.589Z,90.00
2022-12-09T16:23:44.481Z,90.10
2022-12-09T16:28:43.304Z,90.30
2022-12-09T16:33:42.310Z,90.40
2022-12-09T16:38:41.331Z,90.30
2022-12-09T16:43:40.333Z,90.20
2022-12-09T16:48:39.523Z,90.20
2022-12-09T16:53:38.558Z,90.40
2022-12-09T16:58:37.371Z,90.50
2022-12-09T17:03:36.392Z,90.60
2022-12-09T17:08:36.898Z,90.70
2022-12-09T17:13:35.678Z,90.70
2022-12-09T17:18:34.445Z,90.60
2022-12-09T17:23:37.818Z,90.50
2022-12-09T17:28:35.417Z,90.50
2022-12-09T17:33:34.357Z,90.50
2022-12-09T17:38:33.345Z,90.60
2022-12-09T17:43:32.367Z,90.50
2022-12-09T17:48:31.374Z,90.50
2022-12-09T17:53:30.501Z,90.50
2022-12-09T17:58:29.530Z,90.60
2022-12-09T18:03:54.295Z,90.60
2022-12-09T18:08:29.560Z,90.60
2022-12-09T18:13:28.347Z,90.60
2022-12-09T18:18:27.473Z,90.60
2022-12-09T18:23:26.490Z,90.60
2022-12-09T18:28:27.226Z,90.70
2022-12-09T18:33:26.555Z,90.80
2022-12-09T18:38:25.291Z,90.80
2022-12-09T18:43:24.376Z,90.80
2022-12-09T18:48:23.414Z,90.80
2022-12-09T18:53:22.438Z,90.80
2022-12-09T18:58:42.520Z,90.90
2022-12-09T19:03:22.365Z,91.00
2022-12-09T19:08:21.634Z,91.10
2022-12-09T19:13:20.518Z,91.50
2022-12-09T19:18:19.408Z,91.70
2022-12-09T19:23:18.523Z,92.10
2022-12-09T19:28:17.583Z,92.00
2022-12-09T19:33:16.642Z,92.10
2022-12-09T19:38:15.615Z,92.30
2022-12-09T19:43:17.931Z,92.50
2022-12-09T19:48:16.434Z,92.50
2022-12-09T19:53:18.528Z,92.70
2022-12-09T19:58:17.348Z,92.70
2022-12-09T20:03:16.562Z,92.60
2022-12-09T20:08:15.423Z,92.50
2022-12-09T20:13:14.585Z,92.50
2022-12-09T20:18:14.162Z,92.50
2022-12-09T20:23:13.422Z,92.60
2022-12-09T20:28:12.397Z,92.70
2022-12-09T20:33:11.649Z,92.70
2022-12-09T20:38:10.560Z,92.80
2022-12-09T20:43:09.509Z,92.80
2022-12-09T20:48:08.475Z,92.90
2022-12-09T20:53:07.483Z,92.90
2022-12-09T20:58:06.503Z,93.00
2022-12-09T21:03:08.538Z,93.00
2022-12-09T21:08:07.635Z,92.90
2022-12-09T21:13:06.500Z,92.90
2022-12-09T21:18:05.414Z,92.90
2022-12-09T21:23:32.775Z,92.90
2022-12-09T21:28:05.751Z,92.80
2022-12-09T21:33:04.470Z,92.70
2022-12-09T21:38:06.607Z,92.70
2022-12-09T21:43:05.687Z,92.70
2022-12-09T21:48:04.708Z,92.70
2022-12-09T21:53:03.878Z,92.70
2022-12-09T21:58:06.075Z,92.50
2022-12-09T22:03:05.518Z,92.50
2022-12-09T22:08:04.558Z,92.50
2022-12-09T22:13:03.550Z,92.30
2022-12-09T22:18:02.527Z,92.10
2022-12-09T22:23:01.552Z,92.10
2022-12-09T22:28:00.559Z,92.00
2022-12-09T22:32:59.697Z,91.90
2022-12-09T22:37:59.401Z,92.00
2022-12-09T22:42:58.532Z,92.00
2022-12-09T22:47:57.657Z,92.00
2022-12-09T22:52:56.458Z,92.00
2022-12-09T22:57:56.159Z,91.90
2022-12-09T23:02:55.657Z,91.80
2022-12-09T23:07:55.345Z,91.90
2022-12-09T23:12:54.538Z,91.90
2022-12-09T23:17:53.547Z,92.00
2022-12-09T23:22:52.581Z,92.00
2022-12-09T23:27:51.567Z,91.90
2022-12-09T23:32:50.612Z,91.90
2022-12-09T23:37:49.604Z,92.00
2022-12-09T23:42:48.715Z,92.10
2022-12-09T23:47:47.614Z,92.20
2022-12-09T23:52:46.634Z,92.30
2022-12-09T23:57:45.648Z,92.30
